createdAt,value
2022-12-16T00:00:50.941Z,34.13
2022-12-16T00:01:53.954Z,39.60
2022-12-16T00:03:00.464Z,33.22
2022-12-16T00:04:03.477Z,33.10
2022-12-16T00:05:06.294Z,34.05
2022-12-16T00:06:10.505Z,33.47
2022-12-16T00:07:12.420Z,33.45
2022-12-16T00:08:15.357Z,33.00
2022-12-16T00:09:17.692Z,31.25
2022-12-16T00:10:21.969Z,36.47
2022-12-16T00:11:25.085Z,35.13
2022-12-16T00:12:27.159Z,37.95
2022-12-16T00:13:32.460Z,33.80
2022-12-16T00:14:34.705Z,36.17
2022-12-16T00:15:38.854Z,34.80
2022-12-16T00:16:41.953Z,28.73
2022-12-16T00:17:43.946Z,37.15
2022-12-16T00:18:48.174Z,32.05
2022-12-16T00:19:50.156Z,34.90
2022-12-16T00:20:55.255Z,35.30
2022-12-16T00:21:57.266Z,34.05
2022-12-16T00:23:00.190Z,30.25
2022-12-16T00:24:02.127Z,33.08
2022-12-16T00:25:05.597Z,35.50
2022-12-16T00:26:09.648Z,35.58
2022-12-16T00:27:12.728Z,32.00
2022-12-16T00:28:16.410Z,36.65
2022-12-16T00:29:20.139Z,33.83
2022-12-16T00:30:22.088Z,33.10
2022-12-16T00:31:25.436Z,35.38
2022-12-16T00:32:27.436Z,36.78
2022-12-16T00:33:30.835Z,31.50
2022-12-16T00:34:33.312Z,33.80
2022-12-16T00:35:36.340Z,36.60
2022-12-16T00:36:39.228Z,31.90
2022-12-16T00:37:41.173Z,28.55
2022-12-16T00:38:44.137Z,32.47
2022-12-16T00:39:46.095Z,30.65
2022-12-16T00:40:49.084Z,32.05
2022-12-16T00:41:53.369Z,29.15
2022-12-16T00:42:56.857Z,32.08
2022-12-16T00:43:59.837Z,27.63
2022-12-16T00:45:01.847Z,36.17
2022-12-16T00:46:05.138Z,30.13
2022-12-16T00:47:07.130Z,36.13
2022-12-16T00:48:10.168Z,41.17
2022-12-16T00:49:12.106Z,32.22
2022-12-16T00:50:15.068Z,29.08
2022-12-16T00:51:16.977Z,37.35
2022-12-16T00:52:19.888Z,32.50
2022-12-16T00:53:23.062Z,30.05
2022-12-16T00:54:26.029Z,32.47
2022-12-16T00:55:28.016Z,33.30
2022-12-16T00:56:30.942Z,34.53
2022-12-16T00:57:34.312Z,31.92
2022-12-16T00:58:37.908Z,37.92
2022-12-16T00:59:40.804Z,33.30
2022-12-16T01:00:42.920Z,37.65
2022-12-16T01:01:46.051Z,35.63
2022-12-16T01:02:49.364Z,39.55
2022-12-16T01:03:52.392Z,33.63
2022-12-16T01:04:54.382Z,33.05
2022-12-16T01:05:57.730Z,33.90
2022-12-16T01:06:59.701Z,38.25
2022-12-16T01:08:02.742Z,34.15
2022-12-16T01:09:04.848Z,33.20
2022-12-16T01:10:09.461Z,35.72
2022-12-16T01:11:11.421Z,39.28
2022-12-16T01:12:14.327Z,31.55
2022-12-16T01:13:17.919Z,40.85
2022-12-16T01:14:20.904Z,33.10
2022-12-16T01:15:22.871Z,33.28
2022-12-16T01:16:26.078Z,37.10
2022-12-16T01:17:28.196Z,35.33
2022-12-16T01:18:31.512Z,33.90
2022-12-16T01:19:33.500Z,38.53
2022-12-16T01:20:36.428Z,33.28
2022-12-16T01:21:38.825Z,34.60
2022-12-16T01:22:42.556Z,34.50
2022-12-16T01:23:44.549Z,37.85
2022-12-16T01:24:47.595Z,34.72
2022-12-16T01:25:52.920Z,40.65
2022-12-16T01:26:56.069Z,31.95
2022-12-16T01:27:57.992Z,36.55
2022-12-16T01:29:02.300Z,36.65
2022-12-16T01:30:05.079Z,36.40
2022-12-16T01:31:08.206Z,35.97
2022-12-16T01:32:14.121Z,36.72
2022-12-16T01:33:18.096Z,38.22
2022-12-16T01:34:20.096Z,32.88
2022-12-16T01:35:52.240Z,40.42
2022-12-16T01:36:45.998Z,37.22
2022-12-16T01:37:48.076Z,39.22
2022-12-16T01:38:51.392Z,35.30
2022-12-16T01:39:53.999Z,40.88
2022-12-16T01:40:57.280Z,33.10
2022-12-16T01:41:59.234Z,32.03
2022-12-16T01:43:02.155Z,38.13
2022-12-16T01:44:20.315Z,32.65
2022-12-16T01:45:32.976Z,34.58
2022-12-16T01:46:38.571Z,40.60
2022-12-16T01:47:40.594Z,35.05
2022-12-16T01:48:47.991Z,41.63
2022-12-16T01:49:53.478Z,33.10
2022-12-16T01:51:03.758Z,35.10
2022-12-16T01:52:09.549Z,39.28
2022-12-16T01:53:12.546Z,38.17
2022-12-16T01:54:19.542Z,34.55
2022-12-16T01:55:24.708Z,33.70
2022-12-16T01:56:31.068Z,30.73
2022-12-16T01:57:37.905Z,40.33
2022-12-16T01:58:42.834Z,35.85
2022-12-16T01:59:48.937Z,36.30
2022-12-16T02:00:52.064Z,39.25
2022-12-16T02:01:57.368Z,32.22
2022-12-16T02:03:01.455Z,33.05
2022-12-16T02:04:05.382Z,34.50
2022-12-16T02:05:22.922Z,38.70
2022-12-16T02:06:25.980Z,34.67
2022-12-16T02:07:28.001Z,34.15
2022-12-16T02:08:31.067Z,32.38
2022-12-16T02:09:33.061Z,38.20
2022-12-16T02:10:48.438Z,35.67
2022-12-16T02:12:14.428Z,35.80
2022-12-16T02:13:26.391Z,36.95
2022-12-16T02:15:02.412Z,37.90
2022-12-16T02:16:13.927Z,36.65
2022-12-16T02:17:25.610Z,38.60
2022-12-16T02:18:38.291Z,31.60
2022-12-16T02:20:29.010Z,37.05
2022-12-16T02:21:51.970Z,38.00
2022-12-16T02:23:16.834Z,41.47
2022-12-16T02:25:03.172Z,36.70
2022-12-16T02:26:38.676Z,31.40
2022-12-16T02:27:52.524Z,34.40
2022-12-16T02:29:20.825Z,30.52
2022-12-16T02:30:47.471Z,31.52
2022-12-16T02:31:55.980Z,36.85
2022-12-16T02:33:10.205Z,33.03
2022-12-16T02:34:22.173Z,36.15
2022-12-16T02:35:31.354Z,32.28
2022-12-16T02:36:51.993Z,32.20
2022-12-16T02:38:12.801Z,35.95
2022-12-16T02:40:56.058Z,33.03
2022-12-16T02:42:03.536Z,30.83
2022-12-16T02:43:12.330Z,35.53
2022-12-16T02:44:16.401Z,33.33
2022-12-16T02:45:21.705Z,37.63
2022-12-16T02:46:28.692Z,34.40
2022-12-16T02:47:32.965Z,34.92
2022-12-16T02:48:34.932Z,32.20
2022-12-16T02:49:48.233Z,39.80
2022-12-16T02:50:51.632Z,34.60
2022-12-16T02:51:55.800Z,36.90
2022-12-16T02:52:58.876Z,35.33
2022-12-16T02:54:01.960Z,33.80
2022-12-16T02:55:08.997Z,32.50
2022-12-16T02:56:25.060Z,35.38
2022-12-16T02:57:49.544Z,37.70
2022-12-16T02:58:58.191Z,39.85
2022-12-16T03:00:04.910Z,35.22
2022-12-16T03:01:13.604Z,33.50
2022-12-16T03:02:25.691Z,33.35
2022-12-16T03:03:35.739Z,31.02
2022-12-16T03:04:44.288Z,29.33
2022-12-16T03:05:48.678Z,39.28
2022-12-16T03:06:54.154Z,36.95
2022-12-16T03:08:00.418Z,32.30
2022-12-16T03:09:07.608Z,33.63
2022-12-16T03:10:14.494Z,33.97
2022-12-16T03:11:17.444Z,32.63
2022-12-16T03:12:21.911Z,33.67
2022-12-16T03:13:26.219Z,38.08
2022-12-16T03:14:31.735Z,31.63
2022-12-16T03:15:36.011Z,31.73
2022-12-16T03:16:38.229Z,35.38
2022-12-16T03:17:43.781Z,38.00
2022-12-16T03:18:51.365Z,35.25
2022-12-16T03:20:10.450Z,29.75
2022-12-16T03:21:15.230Z,38.40
2022-12-16T03:22:21.991Z,32.08
2022-12-16T03:23:29.637Z,29.67
2022-12-16T03:24:32.542Z,31.88
2022-12-16T03:25:38.144Z,29.38
2022-12-16T03:26:49.056Z,33.47
2022-12-16T03:27:57.573Z,32.80
2022-12-16T03:29:04.655Z,26.63
2022-12-16T03:30:13.312Z,39.35
2022-12-16T03:31:25.691Z,35.67
2022-12-16T03:32:34.197Z,30.65
2022-12-16T03:33:41.911Z,32.05
2022-12-16T03:34:48.940Z,30.20
2022-12-16T03:35:56.573Z,29.30
2022-12-16T03:37:02.283Z,30.05
2022-12-16T03:38:07.640Z,32.83
2022-12-16T03:39:10.440Z,35.67
2022-12-16T03:40:14.713Z,37.95
2022-12-16T03:41:18.692Z,32.90
2022-12-16T03:42:21.656Z,32.72
2022-12-16T03:43:24.232Z,32.00
2022-12-16T03:44:27.801Z,34.15
2022-12-16T03:45:35.732Z,30.50
2022-12-16T03:46:38.807Z,35.67
2022-12-16T03:47:41.000Z,28.60
2022-12-16T03:48:50.261Z,34.33
2022-12-16T03:49:52.319Z,36.50
2022-12-16T03:50:55.578Z,29.30
2022-12-16T03:51:57.537Z,31.65
2022-12-16T03:53:00.591Z,33.10
2022-12-16T03:54:02.557Z,31.92
2022-12-16T03:55:05.968Z,34.65
2022-12-16T03:56:08.478Z,39.58
2022-12-16T03:57:15.344Z,35.53
2022-12-16T03:58:17.855Z,31.92
2022-12-16T03:59:21.037Z,37.30
2022-12-16T04:00:23.776Z,36.20
2022-12-16T04:01:26.977Z,32.95
2022-12-16T04:02:29.129Z,34.13
2022-12-16T04:03:32.599Z,31.67
2022-12-16T04:04:36.116Z,34.20
2022-12-16T04:05:39.193Z,31.75
2022-12-16T04:06:41.140Z,33.47
2022-12-16T04:07:44.096Z,35.78
2022-12-16T04:08:48.309Z,33.30
2022-12-16T04:09:51.414Z,35.45
2022-12-16T04:11:12.541Z,30.33
2022-12-16T04:12:32.982Z,34.72
2022-12-16T04:13:53.468Z,34.90
2022-12-16T04:15:13.975Z,34.70
2022-12-16T04:16:35.992Z,38.10
2022-12-16T04:17:56.545Z,41.22
2022-12-16T04:19:17.203Z,32.35
2022-12-16T04:20:42.111Z,34.72
2022-12-16T04:22:02.600Z,32.88
2022-12-16T04:23:23.845Z,29.88
2022-12-16T04:24:30.804Z,35.35
2022-12-16T04:25:36.335Z,31.38
2022-12-16T04:26:53.136Z,33.53
2022-12-16T04:27:58.637Z,32.17
2022-12-16T04:29:00.607Z,35.35
2022-12-16T04:30:21.934Z,32.03
2022-12-16T04:31:24.075Z,36.63
2022-12-16T04:32:27.296Z,34.75
2022-12-16T04:33:48.164Z,35.65
2022-12-16T04:34:51.632Z,32.58
2022-12-16T04:36:13.168Z,36.70
2022-12-16T04:37:33.777Z,30.30
2022-12-16T04:38:54.240Z,32.70
2022-12-16T04:40:14.888Z,32.60
2022-12-16T04:41:35.331Z,33.08
2022-12-16T04:42:55.801Z,32.70
2022-12-16T04:44:16.299Z,32.78
2022-12-16T04:45:37.328Z,31.80
2022-12-16T04:46:57.825Z,40.47
2022-12-16T04:48:18.306Z,38.03
2022-12-16T04:49:38.860Z,33.63
2022-12-16T04:50:59.381Z,34.42
2022-12-16T04:52:21.184Z,32.70
2022-12-16T04:53:41.748Z,34.58
2022-12-16T04:55:02.155Z,34.42
2022-12-16T04:56:23.109Z,35.40
2022-12-16T04:57:43.663Z,38.55
2022-12-16T04:59:04.128Z,38.13
2022-12-16T05:00:25.824Z,33.67
2022-12-16T05:01:46.649Z,37.78
2022-12-16T05:03:07.617Z,31.90
2022-12-16T05:04:27.892Z,34.10
2022-12-16T05:05:59.676Z,30.80
2022-12-16T05:07:21.396Z,34.65
2022-12-16T05:08:41.792Z,29.90
2022-12-16T05:10:02.394Z,34.72
2022-12-16T05:11:23.390Z,32.85
2022-12-16T05:12:43.833Z,29.98
2022-12-16T05:14:04.420Z,43.70
2022-12-16T05:15:25.661Z,36.30
2022-12-16T05:16:46.144Z,30.75
2022-12-16T05:18:06.637Z,32.80
2022-12-16T05:19:31.648Z,29.75
2022-12-16T05:20:52.435Z,30.73
2022-12-16T05:22:09.220Z,33.75
2022-12-16T05:23:31.158Z,31.90
2022-12-16T05:24:57.193Z,34.60
2022-12-16T05:26:17.652Z,29.13
2022-12-16T05:27:38.156Z,32.67
2022-12-16T05:28:58.624Z,33.40
2022-12-16T05:30:18.983Z,38.25
2022-12-16T05:31:39.547Z,38.17
2022-12-16T05:32:59.877Z,38.22
2022-12-16T05:34:20.580Z,35.33
2022-12-16T05:35:41.208Z,38.90
2022-12-16T05:37:01.893Z,36.47
2022-12-16T05:38:18.746Z,34.22
2022-12-16T05:39:40.483Z,33.15
2022-12-16T05:41:01.096Z,30.30
2022-12-16T05:42:21.728Z,37.47
2022-12-16T05:43:42.316Z,32.92
2022-12-16T05:45:02.767Z,41.05
2022-12-16T05:46:23.436Z,36.53
2022-12-16T05:47:44.655Z,38.38
2022-12-16T05:49:05.074Z,38.60
2022-12-16T05:50:26.144Z,34.97
2022-12-16T05:51:46.653Z,36.30
2022-12-16T05:53:08.623Z,36.45
2022-12-16T05:54:29.105Z,35.65
2022-12-16T05:55:50.841Z,32.00
2022-12-16T05:57:11.387Z,31.75
2022-12-16T05:58:31.864Z,35.60
2022-12-16T05:59:52.519Z,34.22
2022-12-16T06:01:13.504Z,33.55
2022-12-16T06:02:34.222Z,36.40
2022-12-16T06:03:55.384Z,30.70
2022-12-16T06:05:15.743Z,34.38
2022-12-16T06:06:36.356Z,35.88
2022-12-16T06:07:56.827Z,30.92
2022-12-16T06:09:17.320Z,31.13
2022-12-16T06:10:37.872Z,32.53
2022-12-16T06:11:59.369Z,35.50
2022-12-16T06:13:19.783Z,31.52
2022-12-16T06:14:40.436Z,38.80
2022-12-16T06:16:06.764Z,35.88
2022-12-16T06:17:28.824Z,36.35
2022-12-16T06:18:49.390Z,35.10
2022-12-16T06:20:09.800Z,35.28
2022-12-16T06:21:30.399Z,32.75
2022-12-16T06:22:50.980Z,35.80
2022-12-16T06:24:11.548Z,37.22
2022-12-16T06:25:32.091Z,34.50
2022-12-16T06:26:52.668Z,39.70
2022-12-16T06:28:14.278Z,30.77
2022-12-16T06:29:34.847Z,35.03
2022-12-16T06:30:55.385Z,34.05
2022-12-16T06:32:16.120Z,41.28
2022-12-16T06:33:36.566Z,34.78
2022-12-16T06:34:57.088Z,36.42
2022-12-16T06:36:17.614Z,38.10
2022-12-16T06:37:38.255Z,34.28
2022-12-16T06:38:58.750Z,34.70
2022-12-16T06:40:18.973Z,33.75
2022-12-16T06:41:39.319Z,34.05
2022-12-16T06:42:59.797Z,33.40
2022-12-16T06:44:20.592Z,36.92
2022-12-16T06:45:40.967Z,34.30
2022-12-16T06:47:01.227Z,23.00
2022-12-16T06:48:21.887Z,34.15
2022-12-16T06:49:42.372Z,28.75
2022-12-16T06:51:02.655Z,32.28
2022-12-16T06:52:23.087Z,39.75
2022-12-16T06:53:43.837Z,31.50
2022-12-16T06:56:48.222Z,29.88
2022-12-16T06:58:15.028Z,32.50
2022-12-16T06:59:36.757Z,32.72
2022-12-16T07:00:57.237Z,33.90
2022-12-16T07:02:18.154Z,37.22
2022-12-16T07:03:38.383Z,35.28
2022-12-16T07:04:59.010Z,41.67
2022-12-16T07:06:19.600Z,29.85
2022-12-16T07:07:40.210Z,29.40
2022-12-16T07:09:00.570Z,35.05
2022-12-16T07:10:24.821Z,32.00
2022-12-16T07:11:45.365Z,32.50
2022-12-16T07:13:05.902Z,32.15
2022-12-16T07:14:26.483Z,29.60
2022-12-16T07:15:48.025Z,29.50
2022-12-16T07:17:12.337Z,27.42
2022-12-16T07:18:32.081Z,30.45
2022-12-16T07:19:52.609Z,31.48
2022-12-16T07:21:13.079Z,26.77
2022-12-16T07:22:33.600Z,29.92
2022-12-16T07:23:50.463Z,30.10
2022-12-16T07:25:11.122Z,30.20
2022-12-16T07:26:31.610Z,27.15
2022-12-16T07:29:42.761Z,31.20
2022-12-16T07:31:04.485Z,27.08
2022-12-16T07:32:25.023Z,31.17
2022-12-16T07:33:45.532Z,35.85
2022-12-16T07:35:05.985Z,32.60
2022-12-16T07:36:26.979Z,32.35
2022-12-16T07:37:47.323Z,30.90
2022-12-16T07:39:08.009Z,32.38
2022-12-16T07:40:29.713Z,25.98
2022-12-16T07:41:50.317Z,28.10
2022-12-16T07:43:09.752Z,32.53
2022-12-16T07:44:30.225Z,38.60
2022-12-16T07:45:51.281Z,37.53
2022-12-16T07:47:14.039Z,29.92
2022-12-16T07:48:34.495Z,36.47
2022-12-16T07:50:06.529Z,32.53
2022-12-16T07:51:27.048Z,28.55
2022-12-16T07:52:47.401Z,29.00
2022-12-16T07:54:19.357Z,27.42
2022-12-16T07:55:36.157Z,29.67
2022-12-16T07:56:56.534Z,31.50
2022-12-16T07:58:17.180Z,28.52
2022-12-16T07:59:38.019Z,28.20
2022-12-16T08:00:58.378Z,30.15
2022-12-16T08:02:20.355Z,24.77
2022-12-16T08:03:37.790Z,34.33
2022-12-16T08:04:58.534Z,28.35
2022-12-16T08:06:19.038Z,31.00
2022-12-16T08:07:39.408Z,29.25
2022-12-16T08:08:59.980Z,35.65
2022-12-16T08:10:20.558Z,25.73
2022-12-16T08:11:41.041Z,25.27
2022-12-16T08:13:01.399Z,29.65
2022-12-16T08:14:21.957Z,28.83
2022-12-16T08:15:42.511Z,29.83
2022-12-16T08:17:05.134Z,27.85
2022-12-16T08:18:27.196Z,36.70
2022-12-16T08:19:47.648Z,32.42
2022-12-16T08:21:08.060Z,24.98
2022-12-16T08:22:28.840Z,26.20
2022-12-16T08:23:49.357Z,27.92
2022-12-16T08:25:09.817Z,26.20
2022-12-16T08:26:30.687Z,29.05
2022-12-16T08:27:51.209Z,23.52
2022-12-16T08:29:41.997Z,28.67
2022-12-16T08:30:51.953Z,24.75
2022-12-16T08:32:12.875Z,30.83
2022-12-16T08:33:34.779Z,25.13
2022-12-16T08:34:55.517Z,26.23
2022-12-16T08:36:16.816Z,30.50
2022-12-16T08:37:37.355Z,24.58
2022-12-16T08:39:06.264Z,30.45
2022-12-16T08:40:35.433Z,21.70
2022-12-16T08:41:56.357Z,31.70
2022-12-16T08:43:16.809Z,28.52
2022-12-16T08:44:37.385Z,26.00
2022-12-16T08:45:57.892Z,29.20
2022-12-16T08:47:18.452Z,26.17
2022-12-16T08:48:40.104Z,26.35
2022-12-16T08:50:02.304Z,31.17
2022-12-16T08:51:24.845Z,28.05
2022-12-16T08:52:45.717Z,25.75
2022-12-16T08:54:06.233Z,24.77
2022-12-16T08:55:29.728Z,25.10
2022-12-16T08:56:50.527Z,29.88
2022-12-16T08:58:14.189Z,29.17
2022-12-16T08:59:34.561Z,28.10
2022-12-16T09:00:55.037Z,28.42
2022-12-16T09:02:15.980Z,25.38
2022-12-16T09:03:36.644Z,29.92
2022-12-16T09:04:59.121Z,21.13
2022-12-16T09:06:19.631Z,27.05
2022-12-16T09:07:40.201Z,22.70
2022-12-16T09:09:00.672Z,24.55
2022-12-16T09:10:21.171Z,24.58
2022-12-16T09:11:41.672Z,23.83
2022-12-16T09:13:02.337Z,26.60
2022-12-16T09:14:23.201Z,26.30
2022-12-16T09:15:43.900Z,24.95
2022-12-16T09:17:04.122Z,25.92
2022-12-16T09:18:24.588Z,28.45
2022-12-16T09:19:44.958Z,26.67
2022-12-16T09:21:06.625Z,27.35
2022-12-16T09:22:27.141Z,27.38
2022-12-16T09:23:47.604Z,22.70
2022-12-16T09:25:08.098Z,26.70
2022-12-16T09:26:43.585Z,28.50
2022-12-16T09:28:07.617Z,28.50
2022-12-16T09:29:29.488Z,24.23
2022-12-16T09:30:49.882Z,24.60
2022-12-16T09:32:11.745Z,24.30
2022-12-16T09:33:32.607Z,22.63
2022-12-16T09:35:01.652Z,25.80
2022-12-16T09:36:24.012Z,26.27
2022-12-16T09:37:44.406Z,24.48
2022-12-16T09:39:05.048Z,24.10
2022-12-16T09:40:27.919Z,29.65
2022-12-16T09:41:59.528Z,23.55
2022-12-16T09:43:27.019Z,25.00
2022-12-16T09:44:56.795Z,26.67
2022-12-16T09:46:36.100Z,25.85
2022-12-16T09:48:03.668Z,26.23
2022-12-16T09:49:36.101Z,23.50
2022-12-16T09:51:01.422Z,23.63
2022-12-16T09:52:27.463Z,29.55
2022-12-16T09:53:53.385Z,20.88
2022-12-16T09:55:13.908Z,26.13
2022-12-16T09:56:36.846Z,26.45
2022-12-16T09:58:02.580Z,23.05
2022-12-16T09:59:29.530Z,22.45
2022-12-16T10:00:50.836Z,28.95
2022-12-16T10:03:58.266Z,31.15
2022-12-16T10:05:19.579Z,29.70
2022-12-16T10:06:51.094Z,26.67
2022-12-16T10:08:21.827Z,24.98
2022-12-16T10:09:48.215Z,26.77
2022-12-16T10:11:18.747Z,18.75
2022-12-16T10:12:48.453Z,24.98
2022-12-16T10:14:19.295Z,21.85
2022-12-16T10:15:50.070Z,21.77
2022-12-16T10:17:19.344Z,22.05
2022-12-16T10:18:51.405Z,21.67
2022-12-16T10:20:18.749Z,21.90
2022-12-16T10:21:45.729Z,19.90
2022-12-16T10:23:11.577Z,23.65
2022-12-16T10:24:44.841Z,24.25
2022-12-16T10:26:09.905Z,24.40
2022-12-16T10:27:33.218Z,25.13
2022-12-16T10:29:03.709Z,24.80
2022-12-16T10:30:31.070Z,20.65
2022-12-16T10:31:52.723Z,17.77
2022-12-16T10:33:13.720Z,20.10
2022-12-16T10:34:45.673Z,24.55
2022-12-16T10:36:10.260Z,25.40
2022-12-16T10:37:34.740Z,22.70
2022-12-16T10:38:59.232Z,24.75
2022-12-16T10:40:23.133Z,25.83
2022-12-16T10:41:48.122Z,20.42
2022-12-16T10:43:16.592Z,20.63
2022-12-16T10:44:43.117Z,24.33
2022-12-16T10:46:07.531Z,27.20
2022-12-16T10:47:30.002Z,26.60
2022-12-16T10:48:57.090Z,22.30
2022-12-16T10:50:18.005Z,21.73
2022-12-16T10:51:40.577Z,21.45
2022-12-16T10:53:10.213Z,27.63
2022-12-16T10:54:50.767Z,20.90
2022-12-16T10:56:30.167Z,21.50
2022-12-16T10:58:16.241Z,27.48
2022-12-16T10:59:37.112Z,20.08
2022-12-16T11:01:00.046Z,23.25
2022-12-16T11:02:23.290Z,19.73
2022-12-16T11:03:45.695Z,21.58
2022-12-16T11:05:07.621Z,24.42
2022-12-16T11:06:29.559Z,21.33
2022-12-16T11:07:53.290Z,28.02
2022-12-16T11:09:13.602Z,20.17
2022-12-16T11:10:46.926Z,24.38
2022-12-16T11:12:22.980Z,18.88
2022-12-16T11:13:46.406Z,24.40
2022-12-16T11:15:28.713Z,27.83
2022-12-16T11:16:49.775Z,22.45
2022-12-16T11:18:21.841Z,20.58
2022-12-16T11:19:45.905Z,25.02
2022-12-16T11:21:24.004Z,20.13
2022-12-16T11:22:46.795Z,25.80
2022-12-16T11:24:22.952Z,21.52
2022-12-16T11:25:43.389Z,20.30
2022-12-16T11:27:13.031Z,25.60
2022-12-16T11:28:36.508Z,23.88
2022-12-16T11:30:09.093Z,20.58
2022-12-16T11:31:34.592Z,21.27
2022-12-16T11:32:57.041Z,22.77
2022-12-16T11:34:20.407Z,19.35
2022-12-16T11:35:44.988Z,25.35
2022-12-16T11:37:10.344Z,20.80
2022-12-16T11:38:42.312Z,19.10
2022-12-16T11:40:02.907Z,17.98
2022-12-16T11:41:24.864Z,20.13
2022-12-16T11:42:50.407Z,20.85
2022-12-16T11:44:12.432Z,19.83
2022-12-16T11:45:35.385Z,19.65
2022-12-16T11:46:56.128Z,20.15
2022-12-16T11:48:22.462Z,22.75
2022-12-16T11:49:48.126Z,19.33
2022-12-16T11:51:12.047Z,21.05
2022-12-16T11:52:37.530Z,21.88
2022-12-16T11:54:03.031Z,17.63
2022-12-16T11:56:03.355Z,21.52
2022-12-16T11:57:15.994Z,22.92
2022-12-16T11:58:44.621Z,19.00
2022-12-16T12:00:11.604Z,21.83
2022-12-16T12:01:44.731Z,21.48
2022-12-16T12:03:11.333Z,25.05
2022-12-16T12:04:44.691Z,20.63
2022-12-16T12:06:14.864Z,22.67
2022-12-16T12:07:58.233Z,22.40
2022-12-16T12:09:24.848Z,28.90
2022-12-16T12:11:08.880Z,20.63
2022-12-16T12:12:38.278Z,24.60
2022-12-16T12:14:10.470Z,28.20
2022-12-16T12:15:40.465Z,21.70
2022-12-16T12:17:14.409Z,22.40
2022-12-16T12:18:42.686Z,16.75
2022-12-16T12:20:17.724Z,19.08
2022-12-16T12:21:43.303Z,20.58
2022-12-16T12:23:01.398Z,18.55
2022-12-16T12:24:31.432Z,16.58
2022-12-16T12:26:02.486Z,20.55
2022-12-16T12:27:32.902Z,21.55
2022-12-16T12:29:06.696Z,23.67
2022-12-16T12:30:33.260Z,18.10
2022-12-16T12:32:03.720Z,17.85
2022-12-16T12:33:43.172Z,18.25
2022-12-16T12:35:12.345Z,16.17
2022-12-16T12:36:39.155Z,18.50
2022-12-16T12:38:04.251Z,21.60
2022-12-16T12:39:36.858Z,17.20
2022-12-16T12:41:09.128Z,17.15
2022-12-16T12:42:48.755Z,18.02
2022-12-16T12:44:20.709Z,17.75
2022-12-16T12:46:06.434Z,16.77
2022-12-16T12:47:30.359Z,14.07
2022-12-16T12:49:00.508Z,14.25
2022-12-16T12:50:27.359Z,17.50
2022-12-16T12:51:55.456Z,14.27
2022-12-16T12:53:33.693Z,16.58
2022-12-16T12:55:03.283Z,16.70
2022-12-16T12:56:30.159Z,14.10
2022-12-16T12:57:53.921Z,16.77
2022-12-16T12:59:33.509Z,15.88
2022-12-16T13:01:02.016Z,14.20
2022-12-16T13:02:24.664Z,15.13
2022-12-16T13:03:56.791Z,15.27
2022-12-16T13:05:24.026Z,19.23
2022-12-16T13:06:47.797Z,18.60
2022-12-16T13:08:08.368Z,16.92
2022-12-16T13:09:50.207Z,12.90
2022-12-16T13:11:35.004Z,12.57
2022-12-16T13:12:56.138Z,15.02
2022-12-16T13:14:16.652Z,15.88
2022-12-16T13:15:39.443Z,19.08
2022-12-16T13:17:36.516Z,12.75
2022-12-16T13:18:56.797Z,12.25
2022-12-16T13:20:17.509Z,14.18
2022-12-16T13:22:02.238Z,13.15
2022-12-16T13:23:47.696Z,13.27
2022-12-16T13:25:09.043Z,13.02
2022-12-16T13:26:29.661Z,12.90
2022-12-16T13:28:06.213Z,10.73
2022-12-16T13:29:37.873Z,10.73
2022-12-16T13:30:58.666Z,9.43
2022-12-16T13:32:33.132Z,6.78
2022-12-16T13:33:54.925Z,9.93
2022-12-16T13:35:19.812Z,9.68
2022-12-16T13:36:52.583Z,8.32
2022-12-16T13:38:15.344Z,8.90
2022-12-16T13:39:44.443Z,9.02
2022-12-16T13:41:11.519Z,6.95
2022-12-16T13:42:50.255Z,7.10
2022-12-16T13:44:12.333Z,9.20
2022-12-16T13:45:48.040Z,11.82
2022-12-16T13:47:10.621Z,9.45
2022-12-16T13:49:05.160Z,8.45
2022-12-16T13:50:54.460Z,9.18
2022-12-16T13:52:20.296Z,13.50
2022-12-16T13:53:43.667Z,7.72
2022-12-16T13:55:10.721Z,10.68
2022-12-16T13:56:46.001Z,9.35
2022-12-16T13:58:12.162Z,8.50
2022-12-16T13:59:37.104Z,10.50
2022-12-16T14:00:59.842Z,8.13
2022-12-16T14:02:32.327Z,8.48
2022-12-16T14:04:00.815Z,10.80
2022-12-16T14:05:23.320Z,11.10
2022-12-16T14:06:46.477Z,9.77
2022-12-16T14:08:07.942Z,8.57
2022-12-16T14:09:49.292Z,9.07
2022-12-16T14:11:19.155Z,11.00
2022-12-16T14:12:58.062Z,15.10
2022-12-16T14:14:38.056Z,9.35
2022-12-16T14:16:15.022Z,9.90
2022-12-16T14:17:42.656Z,10.13
2022-12-16T14:19:17.722Z,12.15
2022-12-16T14:20:47.077Z,10.48
2022-12-16T14:22:10.120Z,9.68
2022-12-16T14:23:59.573Z,10.98
2022-12-16T14:25:28.006Z,8.40
2022-12-16T14:26:48.584Z,9.98
2022-12-16T14:28:09.105Z,21.05
2022-12-16T14:29:38.636Z,31.08
2022-12-16T14:31:00.027Z,53.30
2022-12-16T14:32:20.755Z,99.97
2022-12-16T14:33:43.414Z,73.82
2022-12-16T14:35:03.945Z,101.53
2022-12-16T14:36:38.223Z,38.90
2022-12-16T14:37:58.663Z,43.08
2022-12-16T14:39:19.090Z,30.33
2022-12-16T14:40:41.658Z,18.70
2022-12-16T14:42:08.710Z,9.07
2022-12-16T14:43:31.949Z,10.70
2022-12-16T14:44:52.810Z,8.35
2022-12-16T14:46:13.293Z,11.23
2022-12-16T14:47:42.083Z,13.77
2022-12-16T14:49:05.954Z,8.57
2022-12-16T14:50:38.568Z,10.30
2022-12-16T14:52:05.990Z,10.07
2022-12-16T14:53:35.432Z,7.88
2022-12-16T14:54:58.129Z,8.82
2022-12-16T14:56:33.672Z,10.52
2022-12-16T14:57:54.222Z,8.45
2022-12-16T14:59:26.787Z,8.90
2022-12-16T15:00:58.921Z,8.25
2022-12-16T15:02:32.817Z,8.13
2022-12-16T15:03:58.849Z,10.55
2022-12-16T15:05:19.717Z,11.02
2022-12-16T15:06:43.671Z,10.98
2022-12-16T15:08:05.216Z,11.18
2022-12-16T15:09:31.324Z,8.82
2022-12-16T15:10:52.291Z,10.00
2022-12-16T15:12:15.328Z,7.47
2022-12-16T15:13:37.732Z,8.40
2022-12-16T15:15:00.995Z,10.68
2022-12-16T15:16:34.109Z,10.77
2022-12-16T15:18:02.777Z,12.25
2022-12-16T15:19:23.994Z,8.85
2022-12-16T15:20:47.037Z,14.30
2022-12-16T15:22:07.510Z,9.13
2022-12-16T15:23:37.598Z,11.80
2022-12-16T15:24:58.155Z,12.02
2022-12-16T15:26:18.792Z,13.43
2022-12-16T15:27:43.815Z,13.63
2022-12-16T15:29:04.303Z,13.40
2022-12-16T15:30:55.181Z,16.20
2022-12-16T15:32:15.747Z,14.40
2022-12-16T15:33:37.765Z,12.75
2022-12-16T15:35:05.914Z,12.55
2022-12-16T15:36:46.181Z,12.82
2022-12-16T15:38:06.587Z,11.77
2022-12-16T15:39:48.444Z,14.18
2022-12-16T15:41:10.131Z,15.65
2022-12-16T15:42:40.128Z,15.80
2022-12-16T15:44:03.653Z,13.55
2022-12-16T15:45:39.355Z,10.60
2022-12-16T15:47:06.975Z,12.40
2022-12-16T15:48:31.989Z,10.55
2022-12-16T15:49:59.189Z,12.40
2022-12-16T15:51:23.145Z,11.02
2022-12-16T15:52:55.242Z,18.13
2022-12-16T15:54:20.671Z,13.23
2022-12-16T15:55:45.727Z,29.50
2022-12-16T15:57:06.126Z,18.73
2022-12-16T15:58:32.022Z,14.07
2022-12-16T15:59:54.966Z,16.38
2022-12-16T16:01:16.630Z,23.10
2022-12-16T16:02:39.539Z,27.90
2022-12-16T16:04:07.676Z,34.85
2022-12-16T16:05:31.081Z,31.38
2022-12-16T16:06:51.684Z,24.27
2022-12-16T16:08:12.120Z,19.77
2022-12-16T16:09:34.259Z,18.88
2022-12-16T16:10:55.850Z,16.65
2022-12-16T16:12:15.644Z,13.80
2022-12-16T16:13:50.482Z,10.98
2022-12-16T16:15:10.979Z,12.48
2022-12-16T16:16:31.782Z,12.90
2022-12-16T16:17:52.622Z,9.00
2022-12-16T16:19:13.074Z,15.10
2022-12-16T16:20:35.468Z,68.05
2022-12-16T16:21:56.989Z,68.82
2022-12-16T16:23:17.541Z,54.17
2022-12-16T16:24:38.007Z,19.05
2022-12-16T16:26:03.794Z,11.35
2022-12-16T16:27:29.846Z,8.95
2022-12-16T16:28:50.372Z,10.30
2022-12-16T16:30:10.873Z,9.90
2022-12-16T16:31:31.246Z,10.63
2022-12-16T16:32:51.937Z,11.50
2022-12-16T16:34:12.501Z,10.93
2022-12-16T16:35:32.868Z,12.68
2022-12-16T16:36:53.364Z,13.50
2022-12-16T16:38:18.058Z,14.35
2022-12-16T16:39:38.984Z,12.82
2022-12-16T16:41:02.309Z,10.35
2022-12-16T16:42:22.755Z,10.65
2022-12-16T16:43:44.043Z,11.68
2022-12-16T16:45:04.563Z,9.00
2022-12-16T16:46:41.918Z,10.35
2022-12-16T16:48:02.292Z,11.15
2022-12-16T16:49:22.772Z,10.98
2022-12-16T16:50:43.148Z,10.50
2022-12-16T16:52:03.562Z,14.35
2022-12-16T16:53:23.994Z,11.05
2022-12-16T16:54:44.572Z,11.43
2022-12-16T16:56:15.179Z,10.35
2022-12-16T16:57:40.615Z,10.65
2022-12-16T16:59:00.959Z,8.48
2022-12-16T17:00:22.321Z,11.30
2022-12-16T17:03:06.471Z,10.85
2022-12-16T17:04:27.086Z,9.98
2022-12-16T17:05:59.304Z,10.02
2022-12-16T17:07:19.630Z,12.32
2022-12-16T17:08:39.929Z,10.85
2022-12-16T17:10:00.319Z,8.30